createdAt,value
2023-05-08T00:00:11.016Z,204.90
2023-05-08T00:01:10.988Z,202.73
2023-05-08T00:02:11.044Z,194.84
2023-05-08T00:03:11.178Z,195.24
2023-05-08T00:04:11.206Z,197.30
2023-05-08T00:05:11.177Z,196.76
2023-05-08T00:06:11.202Z,196.62
2023-05-08T00:07:11.304Z,196.28
2023-05-08T00:08:11.329Z,193.33
2023-05-08T00:09:11.388Z,194.38
2023-05-08T00:10:11.544Z,193.69
2023-05-08T00:11:11.492Z,195.12
2023-05-08T00:12:11.607Z,195.61
2023-05-08T00:13:11.633Z,196.92
2023-05-08T00:14:11.698Z,200.07
2023-05-08T00:15:11.715Z,201.25
2023-05-08T00:16:11.978Z,203.34
2023-05-08T00:17:11.810Z,209.10
2023-05-08T00:18:11.857Z,211.59
2023-05-08T00:19:11.890Z,215.30
2023-05-08T00:20:12.301Z,213.97
2023-05-08T00:21:12.003Z,217.67
2023-05-08T00:22:12.049Z,215.24
2023-05-08T00:23:12.083Z,215.42
2023-05-08T00:24:12.193Z,213.27
2023-05-08T00:25:12.210Z,210.46
2023-05-08T00:26:12.284Z,211.84
2023-05-08T00:27:12.317Z,212.19
2023-05-08T00:28:12.356Z,214.46
2023-05-08T00:29:12.416Z,218.20
2023-05-08T00:30:12.565Z,218.84
2023-05-08T00:31:12.528Z,221.99
2023-05-08T00:32:12.653Z,225.05
2023-05-08T00:33:12.672Z,227.35
2023-05-08T00:34:12.691Z,227.31
2023-05-08T00:35:12.755Z,229.78
2023-05-08T00:36:12.772Z,232.36
2023-05-08T00:37:12.817Z,231.60
2023-05-08T00:38:12.975Z,237.17
2023-05-08T00:39:12.917Z,238.08
2023-05-08T00:40:13.143Z,236.64
2023-05-08T00:41:13.023Z,237.77
2023-05-08T00:42:13.070Z,238.37
2023-05-08T00:43:13.120Z,239.02
2023-05-08T00:44:13.160Z,239.08
2023-05-08T00:45:13.192Z,242.25
2023-05-08T00:46:13.367Z,241.59
2023-05-08T00:47:13.310Z,245.03
2023-05-08T00:48:13.352Z,243.42
2023-05-08T00:49:13.389Z,244.30
2023-05-08T00:50:13.778Z,244.57
2023-05-08T00:51:13.450Z,244.58
2023-05-08T00:52:13.517Z,243.96
2023-05-08T00:53:13.564Z,244.72
2023-05-08T00:54:13.674Z,247.33
2023-05-08T00:55:13.671Z,247.42
2023-05-08T00:56:13.724Z,250.02
2023-05-08T00:57:13.713Z,248.57
2023-05-08T00:58:13.778Z,246.65
2023-05-08T00:59:13.808Z,247.61
2023-05-08T01:00:14.029Z,244.26
2023-05-08T01:01:14.538Z,244.17
2023-05-08T01:02:14.051Z,244.03
2023-05-08T01:03:14.086Z,240.83
2023-05-08T01:04:14.033Z,241.15
2023-05-08T01:05:14.118Z,242.20
2023-05-08T01:06:14.151Z,242.62
2023-05-08T01:07:14.166Z,243.88
2023-05-08T01:08:14.228Z,245.13
2023-05-08T01:09:14.277Z,245.09
2023-05-08T01:10:14.663Z,244.91
2023-05-08T01:11:14.417Z,244.58
2023-05-08T01:12:14.424Z,250.08
2023-05-08T01:13:14.601Z,249.97
2023-05-08T01:14:14.519Z,250.00
2023-05-08T01:15:14.566Z,249.65
2023-05-08T01:16:14.649Z,247.86
2023-05-08T01:17:14.609Z,248.70
2023-05-08T01:18:15.588Z,250.00
2023-05-08T01:19:14.722Z,249.68
2023-05-08T01:20:14.933Z,249.35
2023-05-08T01:21:14.778Z,249.61
2023-05-08T01:22:14.800Z,249.70
2023-05-08T01:23:14.844Z,249.77
2023-05-08T01:24:15.554Z,249.54
2023-05-08T01:25:14.952Z,246.75
2023-05-08T01:26:14.994Z,248.51
2023-05-08T01:27:15.516Z,248.57
2023-05-08T01:28:15.077Z,249.16
2023-05-08T01:29:15.117Z,247.59
2023-05-08T01:30:15.153Z,246.43
2023-05-08T01:31:15.182Z,245.82
2023-05-08T01:32:15.203Z,245.72
2023-05-08T01:33:15.377Z,243.06
2023-05-08T01:34:16.047Z,242.00
2023-05-08T01:35:15.314Z,244.00
2023-05-08T01:36:15.374Z,245.16
2023-05-08T01:37:15.407Z,244.45
2023-05-08T01:38:15.485Z,243.89
2023-05-08T01:39:16.005Z,243.70
2023-05-08T01:40:16.290Z,243.57
2023-05-08T01:41:15.674Z,242.16
2023-05-08T01:42:15.654Z,244.97
2023-05-08T01:43:15.668Z,244.86
2023-05-08T01:44:15.742Z,244.90
2023-05-08T01:45:15.745Z,244.55
2023-05-08T01:46:15.837Z,244.90
2023-05-08T01:47:15.836Z,243.90
2023-05-08T01:48:15.871Z,244.45
2023-05-08T01:49:15.905Z,246.38
2023-05-08T01:50:16.132Z,247.60
2023-05-08T01:51:15.982Z,249.23
2023-05-08T01:52:16.045Z,249.97
2023-05-08T01:53:16.067Z,249.17
2023-05-08T01:54:16.150Z,249.08
2023-05-08T01:55:16.187Z,247.68
2023-05-08T01:56:16.179Z,248.17
2023-05-08T01:57:16.234Z,248.77
2023-05-08T01:58:16.268Z,249.01
2023-05-08T01:59:16.321Z,249.82
2023-05-08T02:00:16.388Z,248.38
2023-05-08T02:01:16.510Z,247.54
2023-05-08T02:02:16.456Z,248.48
2023-05-08T02:03:16.530Z,246.42
2023-05-08T02:04:16.604Z,247.41
2023-05-08T02:05:16.542Z,248.92
2023-05-08T02:06:16.638Z,248.98
2023-05-08T02:07:16.612Z,247.84
2023-05-08T02:08:16.664Z,249.46
2023-05-08T02:09:16.716Z,248.32
2023-05-08T02:10:16.784Z,248.27
2023-05-08T02:11:16.840Z,247.80
2023-05-08T02:12:16.835Z,248.72
2023-05-08T02:13:17.629Z,248.96
2023-05-08T02:14:16.920Z,248.26
2023-05-08T02:15:16.944Z,247.73
2023-05-08T02:16:17.043Z,248.61
2023-05-08T02:17:17.023Z,248.71
2023-05-08T02:18:17.065Z,247.77
2023-05-08T02:19:18.054Z,247.32
2023-05-08T02:20:17.183Z,248.58
2023-05-08T02:21:17.180Z,247.38
2023-05-08T02:22:17.232Z,245.90
2023-05-08T02:23:17.294Z,246.39
2023-05-08T02:24:17.323Z,245.75
2023-05-08T02:25:17.377Z,247.46
2023-05-08T02:26:17.428Z,246.96
2023-05-08T02:27:17.452Z,247.81
2023-05-08T02:28:17.460Z,247.54
2023-05-08T02:29:17.509Z,248.91
2023-05-08T02:30:17.567Z,245.23
2023-05-08T02:31:17.611Z,243.80
2023-05-08T02:32:17.745Z,242.05
2023-05-08T02:33:17.733Z,241.62
2023-05-08T02:34:17.713Z,239.99
2023-05-08T02:35:17.826Z,238.68
2023-05-08T02:36:17.802Z,237.43
2023-05-08T02:37:17.848Z,236.18
2023-05-08T02:38:17.925Z,236.39
2023-05-08T02:39:17.939Z,235.73
2023-05-08T02:40:17.981Z,235.15
2023-05-08T02:41:18.054Z,237.04
2023-05-08T02:42:18.101Z,238.50
2023-05-08T02:43:18.162Z,239.45
2023-05-08T02:44:18.217Z,242.07
2023-05-08T02:45:18.286Z,243.25
2023-05-08T02:46:18.317Z,244.13
2023-05-08T02:47:18.348Z,242.95
2023-05-08T02:48:18.375Z,242.67
2023-05-08T02:49:18.453Z,241.96
2023-05-08T02:50:18.520Z,243.26
2023-05-08T02:51:18.515Z,243.92
2023-05-08T02:52:18.634Z,244.29
2023-05-08T02:53:18.594Z,244.54
2023-05-08T02:54:18.641Z,246.52
2023-05-08T02:55:18.770Z,246.28
2023-05-08T02:56:18.771Z,244.61
2023-05-08T02:57:18.797Z,242.74
2023-05-08T02:58:18.861Z,241.84
2023-05-08T02:59:18.881Z,242.01
2023-05-08T03:00:18.914Z,240.72
2023-05-08T03:01:18.979Z,240.05
2023-05-08T03:02:19.010Z,240.97
2023-05-08T03:03:19.252Z,241.05
2023-05-08T03:04:19.110Z,238.35
2023-05-08T03:05:19.187Z,237.77
2023-05-08T03:06:19.213Z,239.95
2023-05-08T03:07:19.272Z,240.14
2023-05-08T03:08:19.346Z,240.53
2023-05-08T03:09:19.339Z,239.26
2023-05-08T03:10:19.402Z,238.23
2023-05-08T03:11:19.475Z,238.33
2023-05-08T03:12:19.461Z,239.83
2023-05-08T03:13:19.537Z,240.55
2023-05-08T03:14:19.584Z,240.98
2023-05-08T03:15:19.605Z,242.05
2023-05-08T03:16:19.727Z,244.44
2023-05-08T03:17:19.782Z,245.60
2023-05-08T03:18:19.781Z,245.29
2023-05-08T03:19:21.365Z,245.87
2023-05-08T03:20:19.818Z,245.46
2023-05-08T03:21:19.789Z,246.79
2023-05-08T03:22:19.805Z,247.64
2023-05-08T03:23:19.809Z,249.38
2023-05-08T03:24:19.788Z,249.41
2023-05-08T03:25:19.783Z,247.69
2023-05-08T03:26:19.740Z,250.00
2023-05-08T03:27:19.749Z,249.32
2023-05-08T03:28:19.791Z,247.65
2023-05-08T03:29:19.730Z,247.80
2023-05-08T03:30:19.712Z,245.53
2023-05-08T03:31:19.763Z,245.10
2023-05-08T03:32:19.709Z,244.85
2023-05-08T03:33:19.713Z,243.46
2023-05-08T03:34:19.699Z,243.27
2023-05-08T03:35:19.758Z,242.57
2023-05-08T03:36:19.753Z,244.51
2023-05-08T03:37:19.682Z,244.89
2023-05-08T03:38:19.664Z,246.44
2023-05-08T03:39:20.568Z,248.88
2023-05-08T03:40:19.715Z,248.35
2023-05-08T03:41:19.673Z,248.04
2023-05-08T03:42:19.661Z,249.80
2023-05-08T03:43:19.676Z,248.38
2023-05-08T03:44:19.621Z,248.27
2023-05-08T03:45:19.646Z,248.18
2023-05-08T03:46:19.698Z,246.87
2023-05-08T03:47:19.607Z,248.57
2023-05-08T03:48:19.663Z,246.32
2023-05-08T03:49:19.687Z,246.80
2023-05-08T03:50:19.693Z,248.70
2023-05-08T03:51:19.571Z,249.65
2023-05-08T03:52:19.559Z,249.13
2023-05-08T03:53:19.597Z,249.68
2023-05-08T03:54:19.564Z,248.21
2023-05-08T03:55:19.571Z,247.53
2023-05-08T03:56:19.666Z,247.85
2023-05-08T03:57:19.553Z,248.80
2023-05-08T03:58:19.550Z,247.94
2023-05-08T03:59:19.564Z,249.61
2023-05-08T04:00:19.690Z,248.41
2023-05-08T04:01:19.649Z,249.62
2023-05-08T04:02:19.774Z,248.50
2023-05-08T04:03:19.764Z,248.70
2023-05-08T04:04:19.886Z,247.20
2023-05-08T04:05:19.815Z,247.75
2023-05-08T04:06:19.873Z,247.44
2023-05-08T04:07:19.903Z,247.27
2023-05-08T04:08:19.926Z,246.07
2023-05-08T04:09:20.008Z,247.05
2023-05-08T04:10:20.059Z,247.97
2023-05-08T04:11:20.109Z,249.02
2023-05-08T04:12:20.171Z,248.75
2023-05-08T04:13:20.295Z,246.84
2023-05-08T04:14:20.219Z,247.45
2023-05-08T04:15:20.272Z,246.28
2023-05-08T04:16:20.368Z,247.19
2023-05-08T04:17:20.370Z,245.42
2023-05-08T04:18:20.420Z,247.37
2023-05-08T04:19:20.857Z,245.83
2023-05-08T04:20:20.514Z,245.17
2023-05-08T04:21:20.512Z,245.65
2023-05-08T04:22:20.579Z,244.04
2023-05-08T04:23:20.642Z,243.62
2023-05-08T04:24:20.683Z,242.62
2023-05-08T04:25:21.114Z,243.59
2023-05-08T04:26:20.842Z,242.31
2023-05-08T04:27:20.842Z,243.89
2023-05-08T04:28:20.940Z,243.67
2023-05-08T04:29:20.935Z,243.90
2023-05-08T04:30:21.011Z,242.72
2023-05-08T04:31:21.060Z,242.96
2023-05-08T04:32:21.099Z,242.00
2023-05-08T04:33:21.200Z,242.30
2023-05-08T04:34:21.221Z,244.59
2023-05-08T04:35:21.306Z,243.47
2023-05-08T04:36:21.316Z,245.53
2023-05-08T04:37:21.351Z,246.51
2023-05-08T04:38:22.122Z,245.08
2023-05-08T04:39:21.466Z,243.37
2023-05-08T04:40:21.505Z,245.60
2023-05-08T04:41:21.664Z,242.48
2023-05-08T04:42:21.636Z,243.43
2023-05-08T04:43:21.644Z,241.75
2023-05-08T04:44:21.703Z,241.75
2023-05-08T04:45:21.800Z,240.18
2023-05-08T04:46:21.918Z,241.29
2023-05-08T04:47:21.950Z,237.15
2023-05-08T04:48:21.913Z,236.51
2023-05-08T04:49:21.984Z,235.57
2023-05-08T04:50:22.042Z,232.72
2023-05-08T04:51:22.091Z,234.75
2023-05-08T04:52:23.107Z,235.61
2023-05-08T04:53:22.222Z,236.73
2023-05-08T04:54:22.270Z,239.03
2023-05-08T04:55:22.290Z,240.91
2023-05-08T04:56:22.348Z,240.49
2023-05-08T04:57:22.409Z,242.97
2023-05-08T04:58:22.494Z,244.81
2023-05-08T04:59:22.497Z,246.24
2023-05-08T05:00:22.550Z,249.13
2023-05-08T05:01:23.733Z,248.02
2023-05-08T05:02:22.660Z,250.00
2023-05-08T05:03:22.786Z,249.34
2023-05-08T05:04:22.785Z,248.35
2023-05-08T05:05:22.819Z,248.19
2023-05-08T05:06:22.895Z,249.48
2023-05-08T05:07:22.927Z,248.43
2023-05-08T05:08:23.024Z,249.11
2023-05-08T05:09:23.041Z,245.43
2023-05-08T05:10:23.075Z,245.35
2023-05-08T05:11:23.118Z,246.21
2023-05-08T05:12:23.184Z,247.07
2023-05-08T05:13:23.314Z,247.45
2023-05-08T05:14:23.307Z,248.68
2023-05-08T05:15:23.321Z,248.59
2023-05-08T05:16:23.472Z,248.52
2023-05-08T05:17:23.506Z,248.30
2023-05-08T05:18:23.490Z,249.62
2023-05-08T05:19:23.546Z,250.35
2023-05-08T05:20:23.605Z,249.19
2023-05-08T05:21:23.659Z,249.36
2023-05-08T05:22:23.715Z,248.68
2023-05-08T05:23:23.757Z,249.67
2023-05-08T05:24:23.795Z,249.03
2023-05-08T05:25:23.839Z,248.25
2023-05-08T05:26:23.907Z,249.44
2023-05-08T05:27:23.973Z,249.40
2023-05-08T05:28:24.012Z,247.65
2023-05-08T05:29:24.067Z,246.60
2023-05-08T05:30:24.132Z,249.24
2023-05-08T05:31:24.191Z,245.14
2023-05-08T05:32:24.253Z,244.90
2023-05-08T05:33:24.268Z,247.54
2023-05-08T05:34:24.315Z,246.88
2023-05-08T05:35:25.571Z,246.47
2023-05-08T05:36:24.434Z,245.43
2023-05-08T05:37:24.480Z,246.20
2023-05-08T05:38:24.535Z,246.37
2023-05-08T05:39:24.573Z,250.11
2023-05-08T05:40:24.636Z,249.01
2023-05-08T05:41:24.659Z,249.86
2023-05-08T05:42:24.692Z,250.00
2023-05-08T05:43:24.748Z,250.00
2023-05-08T05:44:24.728Z,250.00
2023-05-08T05:45:24.793Z,249.65
2023-05-08T05:46:24.849Z,250.00
2023-05-08T05:47:24.893Z,248.58
2023-05-08T05:48:24.904Z,246.63
2023-05-08T05:49:24.891Z,250.00
2023-05-08T05:50:25.183Z,250.67
2023-05-08T05:51:25.019Z,259.21
2023-05-08T05:52:25.062Z,254.80
2023-05-08T05:53:25.194Z,246.35
2023-05-08T05:54:25.218Z,239.21
2023-05-08T05:55:25.651Z,245.10
2023-05-08T05:56:25.381Z,250.15
2023-05-08T05:57:25.300Z,248.83
2023-05-08T05:58:25.349Z,244.79
2023-05-08T05:59:25.416Z,248.59
2023-05-08T06:00:25.413Z,250.00
2023-05-08T06:01:25.428Z,249.15
2023-05-08T06:02:25.561Z,249.42
2023-05-08T06:03:25.528Z,249.24
2023-05-08T06:04:25.480Z,249.69
2023-05-08T06:05:25.551Z,250.00
2023-05-08T06:06:25.577Z,250.00
2023-05-08T06:07:25.633Z,249.69
2023-05-08T06:08:25.709Z,250.00
2023-05-08T06:09:25.719Z,249.81
2023-05-08T06:10:26.118Z,249.13
2023-05-08T06:11:25.761Z,249.85
2023-05-08T06:12:25.752Z,249.76
2023-05-08T06:13:25.901Z,250.00
2023-05-08T06:14:25.770Z,250.00
2023-05-08T06:15:26.112Z,249.76
2023-05-08T06:16:25.812Z,250.11
2023-05-08T06:17:25.881Z,249.61
2023-05-08T06:18:25.900Z,249.89
2023-05-08T06:19:25.977Z,249.52
2023-05-08T06:20:26.487Z,250.00
2023-05-08T06:21:25.965Z,249.47
2023-05-08T06:22:26.036Z,249.30
2023-05-08T06:23:26.120Z,249.60
2023-05-08T06:24:26.101Z,250.00
2023-05-08T06:25:26.173Z,250.30
2023-05-08T06:26:26.180Z,250.00
2023-05-08T06:27:26.250Z,248.98
2023-05-08T06:28:26.303Z,249.94
2023-05-08T06:29:26.327Z,248.70
2023-05-08T06:30:26.400Z,249.94
2023-05-08T06:31:26.519Z,250.11
2023-05-08T06:32:26.544Z,248.98
2023-05-08T06:33:27.078Z,249.20
2023-05-08T06:34:26.585Z,250.00
2023-05-08T06:35:26.675Z,248.62
2023-05-08T06:36:26.726Z,249.08
2023-05-08T06:37:26.765Z,249.99
2023-05-08T06:38:26.836Z,249.62
2023-05-08T06:39:26.866Z,248.29
2023-05-08T06:40:26.974Z,249.67
2023-05-08T06:41:26.975Z,249.08
2023-05-08T06:42:26.977Z,248.89
2023-05-08T06:43:27.031Z,249.62
2023-05-08T06:44:27.055Z,250.00
2023-05-08T06:45:27.090Z,250.00
2023-05-08T06:46:27.186Z,247.83
2023-05-08T06:47:27.174Z,247.65
2023-05-08T06:48:27.214Z,246.41
2023-05-08T06:49:27.168Z,238.56
2023-05-08T06:50:27.669Z,225.30
2023-05-08T06:51:27.274Z,220.97
2023-05-08T06:52:27.282Z,218.35
2023-05-08T06:53:27.296Z,220.76
2023-05-08T06:54:27.318Z,219.69
2023-05-08T06:55:27.341Z,228.39
2023-05-08T06:56:27.329Z,230.90
2023-05-08T06:57:27.372Z,231.98
2023-05-08T06:58:27.412Z,233.65
2023-05-08T06:59:27.445Z,232.19
2023-05-08T07:00:27.507Z,232.84
2023-05-08T07:01:27.618Z,234.26
2023-05-08T07:02:27.646Z,234.99
2023-05-08T07:03:27.669Z,239.78
2023-05-08T07:04:28.422Z,239.08
2023-05-08T07:05:27.707Z,238.60
2023-05-08T07:06:27.735Z,239.03
2023-05-08T07:07:27.773Z,240.04
2023-05-08T07:08:27.863Z,239.83
2023-05-08T07:09:27.864Z,239.27
2023-05-08T07:10:27.888Z,238.87
2023-05-08T07:11:27.910Z,238.78
2023-05-08T07:12:27.951Z,240.57
2023-05-08T07:13:27.982Z,240.20
2023-05-08T07:14:27.991Z,243.41
2023-05-08T07:15:28.269Z,243.80
2023-05-08T07:16:28.106Z,243.65
2023-05-08T07:17:28.074Z,241.45
2023-05-08T07:18:28.091Z,244.06
2023-05-08T07:19:28.091Z,244.65
2023-05-08T07:20:28.147Z,245.22
2023-05-08T07:21:28.167Z,244.99
2023-05-08T07:22:28.208Z,244.76
2023-05-08T07:23:28.274Z,246.90
2023-05-08T07:24:28.158Z,249.17
2023-05-08T07:25:28.192Z,246.75
2023-05-08T07:26:28.193Z,248.03
2023-05-08T07:27:28.216Z,248.48
2023-05-08T07:28:28.232Z,247.97
2023-05-08T07:29:28.254Z,248.70
2023-05-08T07:30:28.338Z,248.39
2023-05-08T07:31:28.407Z,249.75
2023-05-08T07:32:28.391Z,248.97
2023-05-08T07:33:28.395Z,249.50
2023-05-08T07:34:28.449Z,249.40
2023-05-08T07:35:28.506Z,248.84
2023-05-08T07:36:28.543Z,248.31
2023-05-08T07:37:28.617Z,248.78
2023-05-08T07:38:28.648Z,249.27
2023-05-08T07:39:28.714Z,249.99
2023-05-08T07:40:29.192Z,249.46
2023-05-08T07:41:28.864Z,246.28
2023-05-08T07:42:28.854Z,242.33
2023-05-08T07:43:28.872Z,239.34
2023-05-08T07:44:28.900Z,238.16
2023-05-08T07:45:29.155Z,238.16
2023-05-08T07:46:28.888Z,236.03
2023-05-08T07:47:28.955Z,232.74
2023-05-08T07:48:28.956Z,229.06
2023-05-08T07:49:28.972Z,219.62
2023-05-08T07:50:28.993Z,213.98
2023-05-08T07:51:29.038Z,208.34
2023-05-08T07:52:29.653Z,205.53
2023-05-08T07:53:29.124Z,201.19
2023-05-08T07:54:29.123Z,199.79
2023-05-08T07:55:29.133Z,200.51
2023-05-08T07:56:29.178Z,204.11
2023-05-08T07:57:29.137Z,206.65
2023-05-08T07:58:29.186Z,207.79
2023-05-08T07:59:29.157Z,211.28
2023-05-08T08:00:29.246Z,214.29
2023-05-08T08:01:29.257Z,216.96
2023-05-08T08:02:29.393Z,217.83
2023-05-08T08:03:29.477Z,217.93
2023-05-08T08:04:29.576Z,219.21
2023-05-08T08:05:29.804Z,218.50
2023-05-08T08:06:29.506Z,216.60
2023-05-08T08:07:29.529Z,217.23
2023-05-08T08:08:29.569Z,218.27
2023-05-08T08:09:29.636Z,216.29
2023-05-08T08:10:29.698Z,218.99
2023-05-08T08:11:29.680Z,220.74
2023-05-08T08:12:29.819Z,221.99
2023-05-08T08:13:29.839Z,221.72
2023-05-08T08:14:29.815Z,222.41
2023-05-08T08:15:29.871Z,221.68
2023-05-08T08:16:29.946Z,220.19
2023-05-08T08:17:30.008Z,221.14
2023-05-08T08:18:29.946Z,221.67
2023-05-08T08:19:30.050Z,221.87
2023-05-08T08:20:30.045Z,222.35
2023-05-08T08:21:30.110Z,222.77
2023-05-08T08:22:30.111Z,222.47
2023-05-08T08:23:30.158Z,222.42
2023-05-08T08:24:30.211Z,222.45
2023-05-08T08:25:30.237Z,221.01
2023-05-08T08:26:30.276Z,221.90
2023-05-08T08:27:30.319Z,221.74
2023-05-08T08:28:30.444Z,222.42
2023-05-08T08:29:30.423Z,222.38
2023-05-08T08:30:30.478Z,221.78
2023-05-08T08:31:30.441Z,222.66
2023-05-08T08:32:30.462Z,222.72
2023-05-08T08:33:30.588Z,222.44
2023-05-08T08:34:30.536Z,222.31
2023-05-08T08:35:30.591Z,218.14
2023-05-08T08:36:30.977Z,218.82
2023-05-08T08:37:30.640Z,216.63
2023-05-08T08:38:30.709Z,207.01
2023-05-08T08:39:30.736Z,202.88
2023-05-08T08:40:30.766Z,194.48
2023-05-08T08:41:30.777Z,194.29
2023-05-08T08:42:30.783Z,191.88
2023-05-08T08:43:30.822Z,195.10
2023-05-08T08:44:30.923Z,200.22
2023-05-08T08:45:31.196Z,202.42
2023-05-08T08:46:30.944Z,209.83
2023-05-08T08:47:30.941Z,214.51
2023-05-08T08:48:30.924Z,213.72
2023-05-08T08:49:30.948Z,214.41
2023-05-08T08:50:31.190Z,215.67
2023-05-08T08:51:31.070Z,218.46
2023-05-08T08:52:31.046Z,219.22
2023-05-08T08:53:31.148Z,220.91
2023-05-08T08:54:31.167Z,219.62
2023-05-08T08:55:31.268Z,221.72
2023-05-08T08:56:31.265Z,218.21
2023-05-08T08:57:31.337Z,220.49
2023-05-08T08:58:31.358Z,219.55
2023-05-08T08:59:31.428Z,216.35
2023-05-08T09:00:31.580Z,212.84
2023-05-08T09:01:31.622Z,210.45
2023-05-08T09:02:31.646Z,208.70
2023-05-08T09:03:31.755Z,205.82
2023-05-08T09:04:31.707Z,200.17
2023-05-08T09:05:32.184Z,194.70
2023-05-08T09:06:31.741Z,192.26
2023-05-08T09:07:31.751Z,192.23
2023-05-08T09:08:31.807Z,193.29
2023-05-08T09:09:31.824Z,192.96
2023-05-08T09:10:32.234Z,191.76
2023-05-08T09:11:31.846Z,189.73
2023-05-08T09:12:31.906Z,189.56
2023-05-08T09:13:32.016Z,188.77
2023-05-08T09:14:31.964Z,187.18
2023-05-08T09:15:32.005Z,187.96
2023-05-08T09:16:32.158Z,186.87
2023-05-08T09:17:32.107Z,185.37
2023-05-08T09:18:32.073Z,183.89
2023-05-08T09:19:32.136Z,182.66
2023-05-08T09:20:32.170Z,183.08
2023-05-08T09:21:32.184Z,182.93
2023-05-08T09:22:32.191Z,184.67
2023-05-08T09:23:32.261Z,185.96
2023-05-08T09:24:32.302Z,186.31
2023-05-08T09:25:32.350Z,187.87
2023-05-08T09:26:32.353Z,190.79
2023-05-08T09:27:32.370Z,191.40
2023-05-08T09:28:32.391Z,192.34
2023-05-08T09:29:32.431Z,191.01
2023-05-08T09:30:32.448Z,191.50
2023-05-08T09:31:32.814Z,190.40
2023-05-08T09:32:32.721Z,191.21
2023-05-08T09:33:32.509Z,192.86
2023-05-08T09:34:32.528Z,192.45
2023-05-08T09:35:32.551Z,191.89
2023-05-08T09:36:32.516Z,195.98
2023-05-08T09:37:32.528Z,195.19
2023-05-08T09:38:32.565Z,192.65
2023-05-08T09:39:32.608Z,190.42
2023-05-08T09:40:32.724Z,189.00
2023-05-08T09:41:32.633Z,189.87
2023-05-08T09:42:32.636Z,190.73
2023-05-08T09:43:32.709Z,192.28
2023-05-08T09:44:32.751Z,195.74
2023-05-08T09:45:33.323Z,211.79
2023-05-08T09:46:32.804Z,201.42
2023-05-08T09:47:32.861Z,201.41
2023-05-08T09:48:32.999Z,203.04
2023-05-08T09:49:32.925Z,204.03
2023-05-08T09:50:32.963Z,204.08
2023-05-08T09:51:32.966Z,204.99
2023-05-08T09:52:32.985Z,204.37
2023-05-08T09:53:33.007Z,205.05
2023-05-08T09:54:33.031Z,206.62
2023-05-08T09:55:33.073Z,206.03
2023-05-08T09:56:33.106Z,195.53
2023-05-08T09:57:33.130Z,185.01
2023-05-08T09:58:33.158Z,175.26
2023-05-08T09:59:34.185Z,171.56
2023-05-08T10:00:33.253Z,171.23
2023-05-08T10:01:33.332Z,167.64
2023-05-08T10:02:33.299Z,164.55
2023-05-08T10:03:33.334Z,164.36
2023-05-08T10:04:33.424Z,161.29
2023-05-08T10:05:33.449Z,158.28
2023-05-08T10:06:33.348Z,155.95
2023-05-08T10:07:33.362Z,158.36
2023-05-08T10:08:33.401Z,154.39
2023-05-08T10:09:47.115Z,152.02
2023-05-08T10:10:34.446Z,152.19
2023-05-08T10:11:33.840Z,153.51
2023-05-08T10:12:33.422Z,157.12
2023-05-08T10:13:33.397Z,163.29
2023-05-08T10:14:33.459Z,172.55
2023-05-08T10:15:33.413Z,175.75
2023-05-08T10:16:33.426Z,180.12
2023-05-08T10:17:33.404Z,183.31
2023-05-08T10:18:33.359Z,185.46
2023-05-08T10:19:33.402Z,187.32
2023-05-08T10:20:33.485Z,189.68
2023-05-08T10:21:33.411Z,190.30
2023-05-08T10:22:33.410Z,192.14
2023-05-08T10:23:33.330Z,194.46
2023-05-08T10:24:33.385Z,197.77
2023-05-08T10:25:33.408Z,199.39
2023-05-08T10:26:33.421Z,200.49
2023-05-08T10:27:33.480Z,202.09
2023-05-08T10:28:33.526Z,204.46
2023-05-08T10:29:33.582Z,205.26
2023-05-08T10:30:33.628Z,207.00
2023-05-08T10:31:33.746Z,209.87
2023-05-08T10:32:33.767Z,212.03
2023-05-08T10:33:33.843Z,213.89
2023-05-08T10:34:33.849Z,214.79
2023-05-08T10:35:33.887Z,216.17
2023-05-08T10:36:34.310Z,218.30
2023-05-08T10:37:34.044Z,220.71
2023-05-08T10:38:34.094Z,220.93
2023-05-08T10:39:34.120Z,224.71
2023-05-08T10:40:34.083Z,223.90
2023-05-08T10:41:34.147Z,222.01
2023-05-08T10:42:34.167Z,224.91
2023-05-08T10:43:34.173Z,227.47
2023-05-08T10:44:34.207Z,230.03
2023-05-08T10:45:34.250Z,230.35
2023-05-08T10:46:34.769Z,229.27
2023-05-08T10:47:34.284Z,231.04
2023-05-08T10:48:34.298Z,232.90
2023-05-08T10:49:34.327Z,234.85
2023-05-08T10:50:34.349Z,235.69
2023-05-08T10:51:34.364Z,237.69
2023-05-08T10:52:34.364Z,239.87
2023-05-08T10:53:34.413Z,243.65
2023-05-08T10:54:34.393Z,244.32
2023-05-08T10:55:34.393Z,246.31
2023-05-08T10:56:34.422Z,246.91
2023-05-08T10:57:34.424Z,247.74
2023-05-08T10:58:34.407Z,249.84
2023-05-08T10:59:34.450Z,249.56
2023-05-08T11:00:34.434Z,249.44
2023-05-08T11:01:34.531Z,249.06
2023-05-08T11:02:34.537Z,250.00
2023-05-08T11:03:34.561Z,250.00
2023-05-08T11:04:34.602Z,249.42
2023-05-08T11:05:34.542Z,249.75
2023-05-08T11:06:34.587Z,249.83
2023-05-08T11:07:34.571Z,249.44
2023-05-08T11:08:34.695Z,248.82
2023-05-08T11:09:34.605Z,250.00
2023-05-08T11:10:34.704Z,249.48
2023-05-08T11:11:34.685Z,248.86
2023-05-08T11:12:34.704Z,249.04
2023-05-08T11:13:34.822Z,249.78
2023-05-08T11:14:34.746Z,250.02
2023-05-08T11:15:34.789Z,248.40
2023-05-08T11:16:34.965Z,248.15
2023-05-08T11:17:34.924Z,248.21
2023-05-08T11:18:48.555Z,248.54
2023-05-08T11:19:35.971Z,248.64
2023-05-08T11:20:34.924Z,248.96
2023-05-08T11:21:34.905Z,249.12
2023-05-08T11:22:34.927Z,250.06
2023-05-08T11:23:34.885Z,251.36
2023-05-08T11:24:34.907Z,250.00
2023-05-08T11:25:34.902Z,250.00
2023-05-08T11:26:34.900Z,250.00
2023-05-08T11:27:34.873Z,249.73
2023-05-08T11:28:34.881Z,250.00
2023-05-08T11:29:34.919Z,248.82
2023-05-08T11:30:35.145Z,248.75
2023-05-08T11:31:35.325Z,248.58
2023-05-08T11:32:35.404Z,250.64
2023-05-08T11:33:35.146Z,248.43
2023-05-08T11:34:35.142Z,248.86
2023-05-08T11:35:35.210Z,248.68
2023-05-08T11:36:35.274Z,247.79
2023-05-08T11:37:35.250Z,247.80
2023-05-08T11:38:35.231Z,247.73
2023-05-08T11:39:35.282Z,247.63
2023-05-08T11:40:35.276Z,246.91
2023-05-08T11:41:35.282Z,246.18
2023-05-08T11:42:35.303Z,245.64
2023-05-08T11:43:35.325Z,244.99
2023-05-08T11:44:35.339Z,243.59
2023-05-08T11:45:35.353Z,243.59
2023-05-08T11:46:35.458Z,242.14
2023-05-08T11:47:35.422Z,240.93
2023-05-08T11:48:35.447Z,239.91
2023-05-08T11:49:35.499Z,239.58
2023-05-08T11:50:35.499Z,239.35
2023-05-08T11:51:35.566Z,238.48
2023-05-08T11:52:35.553Z,236.36
2023-05-08T11:53:35.615Z,235.65
2023-05-08T11:54:35.685Z,234.09
2023-05-08T11:55:35.705Z,231.96
2023-05-08T11:56:35.797Z,231.47
2023-05-08T11:57:35.826Z,229.43
2023-05-08T11:58:35.826Z,226.62
2023-05-08T11:59:35.953Z,225.37
2023-05-08T12:00:35.937Z,224.69
2023-05-08T12:01:36.032Z,222.99
2023-05-08T12:02:36.124Z,219.89
2023-05-08T12:03:36.175Z,218.48
2023-05-08T12:04:36.816Z,217.25
2023-05-08T12:05:36.213Z,215.57
2023-05-08T12:06:36.277Z,214.24
2023-05-08T12:07:36.313Z,212.18
2023-05-08T12:08:36.380Z,211.51
2023-05-08T12:09:36.442Z,210.92
2023-05-08T12:10:36.457Z,209.01
2023-05-08T12:11:36.540Z,207.83
2023-05-08T12:12:36.566Z,207.36
2023-05-08T12:13:36.673Z,206.07
2023-05-08T12:14:36.695Z,204.66
2023-05-08T12:15:36.733Z,204.01
2023-05-08T12:16:37.338Z,202.72
2023-05-08T12:17:36.919Z,201.97
2023-05-08T12:18:37.964Z,201.26
2023-05-08T12:19:37.000Z,201.60
2023-05-08T12:20:37.039Z,200.54
2023-05-08T12:21:37.130Z,200.69
2023-05-08T12:22:37.127Z,200.14
2023-05-08T12:23:37.186Z,200.09
2023-05-08T12:24:37.246Z,199.84
2023-05-08T12:25:37.297Z,200.98
2023-05-08T12:26:37.352Z,199.13
2023-05-08T12:27:37.476Z,199.98
2023-05-08T12:28:37.457Z,199.56